sensor_id;sensor_type;location;lat;lon;timestamp;P1;durP1;ratioP1;P2;durP2;ratioP2
7410;SDS011;3747;48.628;9.058;2024-03-02T00:01:10;13.95;;;11.48;;
7410;SDS011;3747;48.628;9.058;2024-03-02T00:03:37;12.53;;;9.07;;
7410;SDS011;3747;48.628;9.058;2024-03-02T00:06:04;10.23;;;8.70;;
7410;SDS011;3747;48.628;9.058;2024-03-02T00:08:31;13.67;;;8.67;;
7410;SDS011;3747;48.628;9.058;2024-03-02T00:10:58;11.90;;;7.83;;
7410;SDS011;3747;48.628;9.058;2024-03-02T00:13:25;12.17;;;9.07;;
7410;SDS011;3747;48.628;9.058;2024-03-02T00:15:54;11.70;;;8.90;;
7410;SDS011;3747;48.628;9.058;2024-03-02T00:18:24;12.73;;;8.73;;
7410;SDS011;3747;48.628;9.058;2024-03-02T00:20:54;11.83;;;8.77;;
7410;SDS011;3747;48.628;9.058;2024-03-02T00:23:22;12.77;;;8.10;;
7410;SDS011;3747;48.628;9.058;2024-03-02T00:25:50;14.23;;;9.03;;
7410;SDS011;3747;48.628;9.058;2024-03-02T00:28:19;12.77;;;9.20;;
7410;SDS011;3747;48.628;9.058;2024-03-02T00:30:59;13.00;;;8.93;;
7410;SDS011;3747;48.628;9.058;2024-03-02T00:33:30;12.47;;;9.43;;
7410;SDS011;3747;48.628;9.058;2024-03-02T00:35:57;11.70;;;9.07;;
7410;SDS011;3747;48.628;9.058;2024-03-02T00:38:25;12.53;;;8.50;;
7410;SDS011;3747;48.628;9.058;2024-03-02T00:40:52;12.17;;;8.87;;
7410;SDS011;3747;48.628;9.058;2024-03-02T00:43:41;13.53;;;8.40;;
7410;SDS011;3747;48.628;9.058;2024-03-02T00:46:12;13.00;;;8.60;;
7410;SDS011;3747;48.628;9.058;2024-03-02T00:48:44;14.10;;;9.37;;
7410;SDS011;3747;48.628;9.058;2024-03-02T00:51:17;12.67;;;8.97;;
7410;SDS011;3747;48.628;9.058;2024-03-02T00:53:44;14.57;;;9.60;;
7410;SDS011;3747;48.628;9.058;2024-03-02T00:56:11;15.63;;;9.83;;
7410;SDS011;3747;48.628;9.058;2024-03-02T00:58:38;13.87;;;9.93;;
7410;SDS011;3747;48.628;9.058;2024-03-02T01:01:05;12.87;;;9.07;;
7410;SDS011;3747;48.628;9.058;2024-03-02T01:03:33;15.13;;;10.47;;
7410;SDS011;3747;48.628;9.058;2024-03-02T01:05:59;13.40;;;9.33;;
7410;SDS011;3747;48.628;9.058;2024-03-02T01:08:26;15.20;;;10.37;;
7410;SDS011;3747;48.628;9.058;2024-03-02T01:10:52;13.10;;;9.73;;
7410;SDS011;3747;48.628;9.058;2024-03-02T01:13:19;16.13;;;10.77;;
7410;SDS011;3747;48.628;9.058;2024-03-02T01:15:47;16.97;;;9.57;;
7410;SDS011;3747;48.628;9.058;2024-03-02T01:18:13;15.03;;;10.37;;
7410;SDS011;3747;48.628;9.058;2024-03-02T01:20:41;17.07;;;11.13;;
7410;SDS011;3747;48.628;9.058;2024-03-02T01:23:08;14.20;;;10.27;;
7410;SDS011;3747;48.628;9.058;2024-03-02T01:25:35;15.97;;;10.93;;
7410;SDS011;3747;48.628;9.058;2024-03-02T01:28:02;16.17;;;11.17;;
7410;SDS011;3747;48.628;9.058;2024-03-02T01:30:29;17.43;;;11.70;;
7410;SDS011;3747;48.628;9.058;2024-03-02T01:32:55;14.33;;;12.00;;
7410;SDS011;3747;48.628;9.058;2024-03-02T01:35:24;17.17;;;11.03;;
7410;SDS011;3747;48.628;9.058;2024-03-02T01:37:52;17.17;;;11.87;;
7410;SDS011;3747;48.628;9.058;2024-03-02T01:40:19;22.07;;;13.13;;
7410;SDS011;3747;48.628;9.058;2024-03-02T01:42:46;21.40;;;12.77;;
7410;SDS011;3747;48.628;9.058;2024-03-02T01:45:13;17.17;;;12.03;;
7410;SDS011;3747;48.628;9.058;2024-03-02T01:47:40;22.07;;;12.37;;
7410;SDS011;3747;48.628;9.058;2024-03-02T01:50:07;24.67;;;14.40;;
7410;SDS011;3747;48.628;9.058;2024-03-02T01:52:36;24.17;;;13.67;;
7410;SDS011;3747;48.628;9.058;2024-03-02T01:55:05;22.30;;;13.37;;
7410;SDS011;3747;48.628;9.058;2024-03-02T01:57:32;25.50;;;14.50;;
7410;SDS011;3747;48.628;9.058;2024-03-02T01:59:59;27.43;;;14.50;;
7410;SDS011;3747;48.628;9.058;2024-03-02T02:02:27;21.00;;;13.90;;
7410;SDS011;3747;48.628;9.058;2024-03-02T02:04:54;22.90;;;12.10;;
7410;SDS011;3747;48.628;9.058;2024-03-02T02:07:20;20.47;;;13.30;;
7410;SDS011;3747;48.628;9.058;2024-03-02T02:09:47;22.37;;;13.27;;
7410;SDS011;3747;48.628;9.058;2024-03-02T02:12:15;26.47;;;14.40;;
7410;SDS011;3747;48.628;9.058;2024-03-02T02:14:46;22.97;;;13.83;;
7410;SDS011;3747;48.628;9.058;2024-03-02T02:17:14;29.10;;;16.80;;
7410;SDS011;3747;48.628;9.058;2024-03-02T02:19:40;34.07;;;21.57;;
7410;SDS011;3747;48.628;9.058;2024-03-02T02:22:08;34.13;;;20.00;;
7410;SDS011;3747;48.628;9.058;2024-03-02T02:24:35;32.97;;;17.57;;
7410;SDS011;3747;48.628;9.058;2024-03-02T02:27:05;35.20;;;17.47;;
7410;SDS011;3747;48.628;9.058;2024-03-02T02:29:32;28.07;;;16.27;;
7410;SDS011;3747;48.628;9.058;2024-03-02T02:31:58;35.03;;;17.07;;
7410;SDS011;3747;48.628;9.058;2024-03-02T02:34:25;35.93;;;17.67;;
7410;SDS011;3747;48.628;9.058;2024-03-02T02:36:52;28.70;;;16.60;;
7410;SDS011;3747;48.628;9.058;2024-03-02T02:39:22;30.20;;;16.77;;
7410;SDS011;3747;48.628;9.058;2024-03-02T02:41:49;34.37;;;17.60;;
7410;SDS011;3747;48.628;9.058;2024-03-02T02:44:15;30.97;;;17.10;;
7410;SDS011;3747;48.628;9.058;2024-03-02T02:46:42;33.83;;;18.93;;
7410;SDS011;3747;48.628;9.058;2024-03-02T02:49:09;32.47;;;17.53;;
7410;SDS011;3747;48.628;9.058;2024-03-02T02:51:35;38.37;;;18.07;;
7410;SDS011;3747;48.628;9.058;2024-03-02T02:54:02;29.73;;;16.73;;
7410;SDS011;3747;48.628;9.058;2024-03-02T02:56:30;35.57;;;18.27;;
7410;SDS011;3747;48.628;9.058;2024-03-02T02:58:57;29.43;;;17.90;;
7410;SDS011;3747;48.628;9.058;2024-03-02T03:01:23;35.67;;;18.27;;
7410;SDS011;3747;48.628;9.058;2024-03-02T03:03:50;36.50;;;19.10;;
7410;SDS011;3747;48.628;9.058;2024-03-02T03:06:17;39.53;;;18.97;;
7410;SDS011;3747;48.628;9.058;2024-03-02T03:08:44;40.57;;;19.53;;
7410;SDS011;3747;48.628;9.058;2024-03-02T03:11:10;39.60;;;19.30;;
7410;SDS011;3747;48.628;9.058;2024-03-02T03:13:38;42.47;;;19.93;;
7410;SDS011;3747;48.628;9.058;2024-03-02T03:16:05;39.03;;;19.67;;
7410;SDS011;3747;48.628;9.058;2024-03-02T03:18:32;37.73;;;19.80;;
7410;SDS011;3747;48.628;9.058;2024-03-02T03:20:58;34.90;;;17.63;;
7410;SDS011;3747;48.628;9.058;2024-03-02T03:23:25;35.60;;;18.90;;
7410;SDS011;3747;48.628;9.058;2024-03-02T03:25:52;34.80;;;18.17;;
7410;SDS011;3747;48.628;9.058;2024-03-02T03:28:18;34.23;;;16.90;;
7410;SDS011;3747;48.628;9.058;2024-03-02T03:30:46;33.70;;;16.10;;
7410;SDS011;3747;48.628;9.058;2024-03-02T03:33:13;32.30;;;17.33;;
7410;SDS011;3747;48.628;9.058;2024-03-02T03:35:40;37.17;;;17.83;;
7410;SDS011;3747;48.628;9.058;2024-03-02T03:38:07;33.53;;;17.30;;
7410;SDS011;3747;48.628;9.058;2024-03-02T03:40:33;37.93;;;18.60;;
7410;SDS011;3747;48.628;9.058;2024-03-02T03:43:00;35.23;;;17.07;;
7410;SDS011;3747;48.628;9.058;2024-03-02T03:45:27;33.00;;;17.97;;
7410;SDS011;3747;48.628;9.058;2024-03-02T03:47:56;35.80;;;16.93;;
7410;SDS011;3747;48.628;9.058;2024-03-02T03:50:23;38.10;;;18.83;;
7410;SDS011;3747;48.628;9.058;2024-03-02T03:52:50;33.20;;;17.50;;
7410;SDS011;3747;48.628;9.058;2024-03-02T03:55:17;33.03;;;17.33;;
7410;SDS011;3747;48.628;9.058;2024-03-02T03:57:43;31.07;;;15.90;;
7410;SDS011;3747;48.628;9.058;2024-03-02T04:00:10;32.23;;;16.20;;
7410;SDS011;3747;48.628;9.058;2024-03-02T04:02:38;31.47;;;16.63;;
7410;SDS011;3747;48.628;9.058;2024-03-02T04:05:06;28.43;;;15.53;;
7410;SDS011;3747;48.628;9.058;2024-03-02T04:07:35;31.40;;;16.67;;
7410;SDS011;3747;48.628;9.058;2024-03-02T04:10:06;31.80;;;16.23;;
7410;SDS011;3747;48.628;9.058;2024-03-02T04:12:34;31.17;;;15.43;;
7410;SDS011;3747;48.628;9.058;2024-03-02T04:15:01;30.13;;;16.53;;
7410;SDS011;3747;48.628;9.058;2024-03-02T04:17:29;38.37;;;17.30;;
7410;SDS011;3747;48.628;9.058;2024-03-02T04:19:57;34.67;;;18.63;;
7410;SDS011;3747;48.628;9.058;2024-03-02T04:22:25;25.77;;;15.00;;
7410;SDS011;3747;48.628;9.058;2024-03-02T04:24:52;31.00;;;16.67;;
7410;SDS011;3747;48.628;9.058;2024-03-02T04:27:19;27.13;;;15.07;;
7410;SDS011;3747;48.628;9.058;2024-03-02T04:29:45;26.67;;;16.73;;
7410;SDS011;3747;48.628;9.058;2024-03-02T04:32:12;26.50;;;15.17;;
7410;SDS011;3747;48.628;9.058;2024-03-02T04:34:39;29.77;;;15.30;;
7410;SDS011;3747;48.628;9.058;2024-03-02T04:37:05;28.63;;;16.10;;
7410;SDS011;3747;48.628;9.058;2024-03-02T04:39:35;28.77;;;16.10;;
7410;SDS011;3747;48.628;9.058;2024-03-02T04:42:02;28.87;;;16.33;;
7410;SDS011;3747;48.628;9.058;2024-03-02T04:44:28;24.63;;;14.40;;
7410;SDS011;3747;48.628;9.058;2024-03-02T04:46:55;25.77;;;14.70;;
7410;SDS011;3747;48.628;9.058;2024-03-02T04:49:22;32.47;;;16.30;;
7410;SDS011;3747;48.628;9.058;2024-03-02T04:51:49;30.17;;;15.70;;
7410;SDS011;3747;48.628;9.058;2024-03-02T04:54:16;33.80;;;18.30;;
7410;SDS011;3747;48.628;9.058;2024-03-02T04:56:44;30.73;;;16.90;;
7410;SDS011;3747;48.628;9.058;2024-03-02T04:59:14;34.47;;;17.33;;
7410;SDS011;3747;48.628;9.058;2024-03-02T05:01:41;32.80;;;16.83;;
7410;SDS011;3747;48.628;9.058;2024-03-02T05:04:08;34.30;;;18.10;;
7410;SDS011;3747;48.628;9.058;2024-03-02T05:06:36;33.83;;;16.57;;
7410;SDS011;3747;48.628;9.058;2024-03-02T05:09:03;35.37;;;17.67;;
7410;SDS011;3747;48.628;9.058;2024-03-02T05:11:30;25.70;;;15.23;;
7410;SDS011;3747;48.628;9.058;2024-03-02T05:14:29;32.80;;;16.17;;
7410;SDS011;3747;48.628;9.058;2024-03-02T05:16:57;37.57;;;17.33;;
7410;SDS011;3747;48.628;9.058;2024-03-02T05:19:23;37.80;;;18.33;;
7410;SDS011;3747;48.628;9.058;2024-03-02T05:21:50;48.03;;;26.73;;
7410;SDS011;3747;48.628;9.058;2024-03-02T05:24:17;55.63;;;30.53;;
7410;SDS011;3747;48.628;9.058;2024-03-02T05:26:44;43.43;;;20.60;;
7410;SDS011;3747;48.628;9.058;2024-03-02T05:29:10;34.93;;;17.93;;
7410;SDS011;3747;48.628;9.058;2024-03-02T05:31:39;34.10;;;17.90;;
7410;SDS011;3747;48.628;9.058;2024-03-02T05:34:05;39.73;;;18.27;;
7410;SDS011;3747;48.628;9.058;2024-03-02T05:36:32;37.83;;;17.80;;
7410;SDS011;3747;48.628;9.058;2024-03-02T05:38:59;38.80;;;18.13;;
7410;SDS011;3747;48.628;9.058;2024-03-02T05:41:26;36.33;;;17.13;;
7410;SDS011;3747;48.628;9.058;2024-03-02T05:43:52;35.20;;;18.00;;
7410;SDS011;3747;48.628;9.058;2024-03-02T05:46:19;43.10;;;19.27;;
7410;SDS011;3747;48.628;9.058;2024-03-02T05:48:48;30.57;;;17.37;;
7410;SDS011;3747;48.628;9.058;2024-03-02T05:51:15;34.50;;;17.83;;
7410;SDS011;3747;48.628;9.058;2024-03-02T05:53:41;37.30;;;18.80;;
7410;SDS011;3747;48.628;9.058;2024-03-02T05:56:08;34.50;;;17.83;;
7410;SDS011;3747;48.628;9.058;2024-03-02T05:58:35;34.63;;;17.03;;
7410;SDS011;3747;48.628;9.058;2024-03-02T06:01:14;35.60;;;17.90;;
7410;SDS011;3747;48.628;9.058;2024-03-02T06:03:42;35.77;;;18.00;;
7410;SDS011;3747;48.628;9.058;2024-03-02T06:09:01;34.23;;;16.97;;
7410;SDS011;3747;48.628;9.058;2024-03-02T06:11:32;34.27;;;16.93;;
7410;SDS011;3747;48.628;9.058;2024-03-02T06:13:58;31.80;;;16.90;;
7410;SDS011;3747;48.628;9.058;2024-03-02T06:16:25;28.27;;;14.83;;
7410;SDS011;3747;48.628;9.058;2024-03-02T06:18:52;29.37;;;15.47;;
7410;SDS011;3747;48.628;9.058;2024-03-02T06:21:19;34.23;;;16.87;;
7410;SDS011;3747;48.628;9.058;2024-03-02T06:23:47;37.27;;;18.27;;
7410;SDS011;3747;48.628;9.058;2024-03-02T06:26:14;30.30;;;15.90;;
7410;SDS011;3747;48.628;9.058;2024-03-02T06:28:40;27.17;;;15.17;;
7410;SDS011;3747;48.628;9.058;2024-03-02T06:31:07;30.47;;;15.43;;
7410;SDS011;3747;48.628;9.058;2024-03-02T06:33:34;30.50;;;16.77;;
7410;SDS011;3747;48.628;9.058;2024-03-02T06:36:01;30.33;;;15.53;;
7410;SDS011;3747;48.628;9.058;2024-03-02T06:38:28;28.00;;;15.87;;
7410;SDS011;3747;48.628;9.058;2024-03-02T06:40:58;26.53;;;14.50;;
7410;SDS011;3747;48.628;9.058;2024-03-02T06:43:25;24.10;;;13.90;;
7410;SDS011;3747;48.628;9.058;2024-03-02T06:45:51;25.57;;;14.50;;
7410;SDS011;3747;48.628;9.058;2024-03-02T06:48:18;25.30;;;14.57;;
7410;SDS011;3747;48.628;9.058;2024-03-02T06:50:46;24.33;;;14.23;;
7410;SDS011;3747;48.628;9.058;2024-03-02T06:53:12;26.23;;;14.20;;
7410;SDS011;3747;48.628;9.058;2024-03-02T06:55:42;22.87;;;12.73;;
7410;SDS011;3747;48.628;9.058;2024-03-02T06:58:10;23.00;;;13.37;;
7410;SDS011;3747;48.628;9.058;2024-03-02T07:00:37;19.13;;;12.67;;
7410;SDS011;3747;48.628;9.058;2024-03-02T07:03:04;20.10;;;11.53;;
7410;SDS011;3747;48.628;9.058;2024-03-02T07:05:31;21.30;;;12.47;;
7410;SDS011;3747;48.628;9.058;2024-03-02T07:07:57;18.90;;;10.97;;
7410;SDS011;3747;48.628;9.058;2024-03-02T07:10:24;20.27;;;11.37;;
7410;SDS011;3747;48.628;9.058;2024-03-02T07:12:51;18.63;;;11.07;;
7410;SDS011;3747;48.628;9.058;2024-03-02T07:15:19;17.70;;;10.70;;
7410;SDS011;3747;48.628;9.058;2024-03-02T07:18:09;19.17;;;10.63;;
7410;SDS011;3747;48.628;9.058;2024-03-02T07:20:35;16.97;;;10.43;;
7410;SDS011;3747;48.628;9.058;2024-03-02T07:23:04;17.10;;;10.10;;
7410;SDS011;3747;48.628;9.058;2024-03-02T07:25:31;16.63;;;11.23;;
7410;SDS011;3747;48.628;9.058;2024-03-02T07:27:57;15.80;;;11.33;;
7410;SDS011;3747;48.628;9.058;2024-03-02T07:30:25;15.27;;;10.73;;
7410;SDS011;3747;48.628;9.058;2024-03-02T07:32:52;16.73;;;9.70;;
7410;SDS011;3747;48.628;9.058;2024-03-02T07:35:19;14.40;;;9.73;;
7410;SDS011;3747;48.628;9.058;2024-03-02T07:37:46;14.80;;;9.53;;
7410;SDS011;3747;48.628;9.058;2024-03-02T07:40:13;15.37;;;9.23;;
7410;SDS011;3747;48.628;9.058;2024-03-02T07:42:40;11.87;;;8.47;;
7410;SDS011;3747;48.628;9.058;2024-03-02T07:45:07;12.17;;;8.73;;
7410;SDS011;3747;48.628;9.058;2024-03-02T07:47:36;14.03;;;9.03;;
7410;SDS011;3747;48.628;9.058;2024-03-02T07:50:03;10.73;;;8.20;;
7410;SDS011;3747;48.628;9.058;2024-03-02T07:52:31;10.87;;;8.53;;
7410;SDS011;3747;48.628;9.058;2024-03-02T07:54:58;12.33;;;8.43;;
7410;SDS011;3747;48.628;9.058;2024-03-02T07:57:24;10.73;;;8.73;;
7410;SDS011;3747;48.628;9.058;2024-03-02T07:59:51;9.43;;;7.40;;
7410;SDS011;3747;48.628;9.058;2024-03-02T08:02:18;11.83;;;7.97;;
7410;SDS011;3747;48.628;9.058;2024-03-02T08:04:46;10.23;;;7.53;;
7410;SDS011;3747;48.628;9.058;2024-03-02T08:07:13;9.43;;;7.23;;
7410;SDS011;3747;48.628;9.058;2024-03-02T08:09:39;8.83;;;6.70;;
7410;SDS011;3747;48.628;9.058;2024-03-02T08:12:06;8.80;;;6.70;;
7410;SDS011;3747;48.628;9.058;2024-03-02T08:14:33;7.73;;;6.70;;
7410;SDS011;3747;48.628;9.058;2024-03-02T08:17:00;7.70;;;6.30;;
7410;SDS011;3747;48.628;9.058;2024-03-02T08:19:27;8.03;;;5.57;;
7410;SDS011;3747;48.628;9.058;2024-03-02T08:21:55;5.93;;;5.37;;
7410;SDS011;3747;48.628;9.058;2024-03-02T08:24:24;6.60;;;5.10;;
7410;SDS011;3747;48.628;9.058;2024-03-02T08:26:51;7.23;;;5.13;;
7410;SDS011;3747;48.628;9.058;2024-03-02T08:29:17;6.17;;;4.80;;
7410;SDS011;3747;48.628;9.058;2024-03-02T08:31:44;4.80;;;4.30;;
7410;SDS011;3747;48.628;9.058;2024-03-02T08:34:11;7.00;;;5.50;;
7410;SDS011;3747;48.628;9.058;2024-03-02T08:36:37;9.00;;;6.43;;
7410;SDS011;3747;48.628;9.058;2024-03-02T08:39:06;6.33;;;5.73;;
7410;SDS011;3747;48.628;9.058;2024-03-02T08:41:40;7.37;;;5.20;;
7410;SDS011;3747;48.628;9.058;2024-03-02T08:44:07;5.73;;;4.47;;
7410;SDS011;3747;48.628;9.058;2024-03-02T08:46:33;6.37;;;5.20;;
7410;SDS011;3747;48.628;9.058;2024-03-02T08:49:00;4.93;;;4.50;;
7410;SDS011;3747;48.628;9.058;2024-03-02T08:51:27;4.87;;;3.67;;
7410;SDS011;3747;48.628;9.058;2024-03-02T08:53:54;6.23;;;3.97;;
7410;SDS011;3747;48.628;9.058;2024-03-02T08:56:22;5.57;;;4.10;;
7410;SDS011;3747;48.628;9.058;2024-03-02T08:58:49;4.33;;;3.80;;
7410;SDS011;3747;48.628;9.058;2024-03-02T09:01:16;4.73;;;4.00;;
7410;SDS011;3747;48.628;9.058;2024-03-02T09:03:43;3.73;;;3.43;;
7410;SDS011;3747;48.628;9.058;2024-03-02T09:06:10;3.53;;;3.23;;
7410;SDS011;3747;48.628;9.058;2024-03-02T09:08:39;3.40;;;2.87;;
7410;SDS011;3747;48.628;9.058;2024-03-02T09:11:06;3.30;;;3.00;;
7410;SDS011;3747;48.628;9.058;2024-03-02T09:13:34;3.17;;;2.70;;
7410;SDS011;3747;48.628;9.058;2024-03-02T09:18:48;3.33;;;3.00;;
7410;SDS011;3747;48.628;9.058;2024-03-02T09:23:55;3.10;;;2.80;;
7410;SDS011;3747;48.628;9.058;2024-03-02T09:26:21;4.50;;;3.23;;
7410;SDS011;3747;48.628;9.058;2024-03-02T09:31:39;2.90;;;2.60;;
7410;SDS011;3747;48.628;9.058;2024-03-02T09:34:06;3.13;;;2.83;;
7410;SDS011;3747;48.628;9.058;2024-03-02T09:36:32;2.93;;;2.63;;
7410;SDS011;3747;48.628;9.058;2024-03-02T09:38:59;3.17;;;2.87;;
7410;SDS011;3747;48.628;9.058;2024-03-02T09:41:26;2.47;;;2.27;;
7410;SDS011;3747;48.628;9.058;2024-03-02T09:43:54;2.33;;;2.13;;
7410;SDS011;3747;48.628;9.058;2024-03-02T09:46:24;2.30;;;1.73;;
7410;SDS011;3747;48.628;9.058;2024-03-02T09:48:50;1.80;;;1.70;;
7410;SDS011;3747;48.628;9.058;2024-03-02T09:53:55;2.17;;;1.97;;
7410;SDS011;3747;48.628;9.058;2024-03-02T09:56:22;2.20;;;2.00;;
7410;SDS011;3747;48.628;9.058;2024-03-02T09:58:48;2.77;;;1.50;;
7410;SDS011;3747;48.628;9.058;2024-03-02T10:03:48;2.23;;;2.03;;
7410;SDS011;3747;48.628;9.058;2024-03-02T10:06:19;3.30;;;2.27;;
7410;SDS011;3747;48.628;9.058;2024-03-02T10:08:47;2.97;;;2.50;;
7410;SDS011;3747;48.628;9.058;2024-03-02T10:11:25;2.10;;;1.83;;
7410;SDS011;3747;48.628;9.058;2024-03-02T10:14:03;1.90;;;1.40;;
7410;SDS011;3747;48.628;9.058;2024-03-02T10:16:35;1.33;;;1.23;;
7410;SDS011;3747;48.628;9.058;2024-03-02T10:19:16;1.53;;;1.20;;
7410;SDS011;3747;48.628;9.058;2024-03-02T10:24:20;1.40;;;1.30;;
7410;SDS011;3747;48.628;9.058;2024-03-02T10:26:47;1.20;;;1.10;;
7410;SDS011;3747;48.628;9.058;2024-03-02T10:29:15;1.90;;;1.33;;
7410;SDS011;3747;48.628;9.058;2024-03-02T10:31:55;1.03;;;0.80;;
7410;SDS011;3747;48.628;9.058;2024-03-02T10:34:25;1.03;;;0.80;;
7410;SDS011;3747;48.628;9.058;2024-03-02T10:36:52;1.63;;;1.00;;
7410;SDS011;3747;48.628;9.058;2024-03-02T10:39:20;2.07;;;1.30;;
7410;SDS011;3747;48.628;9.058;2024-03-02T10:41:47;0.60;;;0.60;;
7410;SDS011;3747;48.628;9.058;2024-03-02T10:44:17;0.63;;;0.63;;
7410;SDS011;3747;48.628;9.058;2024-03-02T10:46:45;0.80;;;0.80;;
7410;SDS011;3747;48.628;9.058;2024-03-02T10:49:15;1.10;;;1.00;;
7410;SDS011;3747;48.628;9.058;2024-03-02T10:51:44;0.70;;;0.70;;
7410;SDS011;3747;48.628;9.058;2024-03-02T10:54:10;2.13;;;1.00;;
7410;SDS011;3747;48.628;9.058;2024-03-02T10:56:38;1.07;;;0.60;;
7410;SDS011;3747;48.628;9.058;2024-03-02T10:59:06;1.20;;;0.70;;
7410;SDS011;3747;48.628;9.058;2024-03-02T11:01:42;0.43;;;0.43;;
7410;SDS011;3747;48.628;9.058;2024-03-02T11:04:12;1.30;;;0.50;;
7410;SDS011;3747;48.628;9.058;2024-03-02T11:06:40;1.77;;;1.37;;
7410;SDS011;3747;48.628;9.058;2024-03-02T11:09:14;0.73;;;0.73;;
7410;SDS011;3747;48.628;9.058;2024-03-02T11:11:43;0.40;;;0.40;;
7410;SDS011;3747;48.628;9.058;2024-03-02T11:14:10;1.00;;;0.50;;
7410;SDS011;3747;48.628;9.058;2024-03-02T11:16:42;0.50;;;0.50;;
7410;SDS011;3747;48.628;9.058;2024-03-02T11:19:10;1.10;;;0.67;;
7410;SDS011;3747;48.628;9.058;2024-03-02T11:21:38;0.80;;;0.60;;
7410;SDS011;3747;48.628;9.058;2024-03-02T11:26:58;1.37;;;0.80;;
7410;SDS011;3747;48.628;9.058;2024-03-02T11:29:44;0.70;;;0.70;;
7410;SDS011;3747;48.628;9.058;2024-03-02T11:32:13;2.57;;;0.97;;
7410;SDS011;3747;48.628;9.058;2024-03-02T11:34:45;0.90;;;0.90;;
7410;SDS011;3747;48.628;9.058;2024-03-02T11:37:14;1.47;;;1.00;;
7410;SDS011;3747;48.628;9.058;2024-03-02T11:39:43;1.10;;;1.00;;
7410;SDS011;3747;48.628;9.058;2024-03-02T11:42:11;1.53;;;0.83;;
7410;SDS011;3747;48.628;9.058;2024-03-02T11:44:41;0.67;;;0.67;;
7410;SDS011;3747;48.628;9.058;2024-03-02T11:47:10;0.90;;;0.83;;
7410;SDS011;3747;48.628;9.058;2024-03-02T11:49:41;1.10;;;0.90;;
7410;SDS011;3747;48.628;9.058;2024-03-02T11:52:08;1.00;;;0.90;;
7410;SDS011;3747;48.628;9.058;2024-03-02T11:54:36;1.30;;;0.80;;
7410;SDS011;3747;48.628;9.058;2024-03-02T11:57:06;0.73;;;0.70;;
7410;SDS011;3747;48.628;9.058;2024-03-02T11:59:34;0.90;;;0.70;;
7410;SDS011;3747;48.628;9.058;2024-03-02T12:02:01;2.20;;;0.90;;
7410;SDS011;3747;48.628;9.058;2024-03-02T12:04:28;1.20;;;1.10;;
7410;SDS011;3747;48.628;9.058;2024-03-02T12:06:56;0.90;;;0.70;;
7410;SDS011;3747;48.628;9.058;2024-03-02T12:09:25;0.50;;;0.50;;
7410;SDS011;3747;48.628;9.058;2024-03-02T12:12:02;0.80;;;0.70;;
7410;SDS011;3747;48.628;9.058;2024-03-02T12:14:31;0.83;;;0.83;;
7410;SDS011;3747;48.628;9.058;2024-03-02T12:16:58;0.67;;;0.60;;
7410;SDS011;3747;48.628;9.058;2024-03-02T12:19:25;0.80;;;0.80;;
7410;SDS011;3747;48.628;9.058;2024-03-02T12:21:54;0.67;;;0.67;;
7410;SDS011;3747;48.628;9.058;2024-03-02T12:24:22;0.83;;;0.83;;
7410;SDS011;3747;48.628;9.058;2024-03-02T12:26:49;1.00;;;0.90;;
7410;SDS011;3747;48.628;9.058;2024-03-02T12:29:17;0.93;;;0.70;;
7410;SDS011;3747;48.628;9.058;2024-03-02T12:31:46;1.80;;;1.43;;
7410;SDS011;3747;48.628;9.058;2024-03-02T12:34:14;1.60;;;1.50;;
7410;SDS011;3747;48.628;9.058;2024-03-02T12:36:42;1.50;;;1.30;;
7410;SDS011;3747;48.628;9.058;2024-03-02T12:39:12;0.90;;;0.73;;
7410;SDS011;3747;48.628;9.058;2024-03-02T12:41:39;0.30;;;0.30;;
7410;SDS011;3747;48.628;9.058;2024-03-02T12:44:07;0.70;;;0.50;;
7410;SDS011;3747;48.628;9.058;2024-03-02T12:46:34;0.33;;;0.33;;
7410;SDS011;3747;48.628;9.058;2024-03-02T12:49:07;0.50;;;0.50;;
7410;SDS011;3747;48.628;9.058;2024-03-02T12:51:35;1.30;;;0.50;;
7410;SDS011;3747;48.628;9.058;2024-03-02T12:54:03;0.40;;;0.40;;
7410;SDS011;3747;48.628;9.058;2024-03-02T12:56:30;2.00;;;0.53;;
7410;SDS011;3747;48.628;9.058;2024-03-02T12:58:57;0.47;;;0.47;;
7410;SDS011;3747;48.628;9.058;2024-03-02T13:01:24;0.60;;;0.50;;
7410;SDS011;3747;48.628;9.058;2024-03-02T13:03:52;0.30;;;0.30;;
7410;SDS011;3747;48.628;9.058;2024-03-02T13:06:21;1.50;;;0.47;;
7410;SDS011;3747;48.628;9.058;2024-03-02T13:08:48;0.60;;;0.60;;
7410;SDS011;3747;48.628;9.058;2024-03-02T13:11:15;0.67;;;0.67;;
7410;SDS011;3747;48.628;9.058;2024-03-02T13:13:42;0.57;;;0.57;;
7410;SDS011;3747;48.628;9.058;2024-03-02T13:16:09;1.93;;;0.40;;
7410;SDS011;3747;48.628;9.058;2024-03-02T13:18:38;3.97;;;2.37;;
7410;SDS011;3747;48.628;9.058;2024-03-02T13:21:05;0.40;;;0.40;;
7410;SDS011;3747;48.628;9.058;2024-03-02T13:23:33;0.70;;;0.60;;
7410;SDS011;3747;48.628;9.058;2024-03-02T13:26:13;0.50;;;0.50;;
7410;SDS011;3747;48.628;9.058;2024-03-02T13:28:40;0.60;;;0.60;;
7410;SDS011;3747;48.628;9.058;2024-03-02T13:31:07;0.53;;;0.40;;
7410;SDS011;3747;48.628;9.058;2024-03-02T13:33:33;0.50;;;0.50;;
7410;SDS011;3747;48.628;9.058;2024-03-02T13:36:00;0.60;;;0.40;;
7410;SDS011;3747;48.628;9.058;2024-03-02T13:38:27;0.67;;;0.67;;
7410;SDS011;3747;48.628;9.058;2024-03-02T13:40:55;0.63;;;0.63;;
7410;SDS011;3747;48.628;9.058;2024-03-02T13:43:22;0.63;;;0.60;;
7410;SDS011;3747;48.628;9.058;2024-03-02T13:45:59;0.40;;;0.40;;
7410;SDS011;3747;48.628;9.058;2024-03-02T13:48:25;0.77;;;0.50;;
7410;SDS011;3747;48.628;9.058;2024-03-02T13:50:52;0.47;;;0.47;;
7410;SDS011;3747;48.628;9.058;2024-03-02T13:53:19;0.40;;;0.40;;
7410;SDS011;3747;48.628;9.058;2024-03-02T13:55:45;1.03;;;0.50;;
7410;SDS011;3747;48.628;9.058;2024-03-02T13:58:14;1.00;;;0.90;;
7410;SDS011;3747;48.628;9.058;2024-03-02T14:00:41;1.20;;;1.10;;
7410;SDS011;3747;48.628;9.058;2024-03-02T14:03:07;0.73;;;0.73;;
7410;SDS011;3747;48.628;9.058;2024-03-02T14:05:34;1.23;;;0.97;;
7410;SDS011;3747;48.628;9.058;2024-03-02T14:08:01;1.20;;;1.10;;
7410;SDS011;3747;48.628;9.058;2024-03-02T14:10:29;1.57;;;1.13;;
7410;SDS011;3747;48.628;9.058;2024-03-02T14:12:55;1.70;;;1.17;;
7410;SDS011;3747;48.628;9.058;2024-03-02T14:15:24;1.70;;;1.00;;
7410;SDS011;3747;48.628;9.058;2024-03-02T14:17:50;0.70;;;0.70;;
7410;SDS011;3747;48.628;9.058;2024-03-02T14:20:23;1.87;;;0.90;;
7410;SDS011;3747;48.628;9.058;2024-03-02T14:22:50;1.10;;;0.90;;
7410;SDS011;3747;48.628;9.058;2024-03-02T14:25:17;1.27;;;0.70;;
7410;SDS011;3747;48.628;9.058;2024-03-02T14:27:44;1.53;;;0.80;;
7410;SDS011;3747;48.628;9.058;2024-03-02T14:30:12;1.17;;;0.80;;
7410;SDS011;3747;48.628;9.058;2024-03-02T14:35:32;1.00;;;0.73;;
7410;SDS011;3747;48.628;9.058;2024-03-02T14:37:58;1.77;;;0.80;;
7410;SDS011;3747;48.628;9.058;2024-03-02T14:40:25;0.60;;;0.43;;
7410;SDS011;3747;48.628;9.058;2024-03-02T14:43:01;2.40;;;0.70;;
7410;SDS011;3747;48.628;9.058;2024-03-02T14:45:28;1.10;;;1.00;;
7410;SDS011;3747;48.628;9.058;2024-03-02T14:47:55;0.67;;;0.60;;
7410;SDS011;3747;48.628;9.058;2024-03-02T14:50:25;0.70;;;0.70;;
7410;SDS011;3747;48.628;9.058;2024-03-02T14:52:52;0.63;;;0.63;;
7410;SDS011;3747;48.628;9.058;2024-03-02T14:55:20;0.63;;;0.60;;
7410;SDS011;3747;48.628;9.058;2024-03-02T14:57:47;0.60;;;0.60;;
7410;SDS011;3747;48.628;9.058;2024-03-02T15:00:14;0.63;;;0.63;;
7410;SDS011;3747;48.628;9.058;2024-03-02T15:02:41;0.80;;;0.80;;
7410;SDS011;3747;48.628;9.058;2024-03-02T15:05:08;1.30;;;0.57;;
7410;SDS011;3747;48.628;9.058;2024-03-02T15:07:36;0.70;;;0.53;;
7410;SDS011;3747;48.628;9.058;2024-03-02T15:10:03;0.87;;;0.63;;
7410;SDS011;3747;48.628;9.058;2024-03-02T15:12:31;1.03;;;0.60;;
7410;SDS011;3747;48.628;9.058;2024-03-02T15:14:58;0.80;;;0.60;;
7410;SDS011;3747;48.628;9.058;2024-03-02T15:17:24;1.00;;;0.60;;
7410;SDS011;3747;48.628;9.058;2024-03-02T15:19:56;0.70;;;0.70;;
7410;SDS011;3747;48.628;9.058;2024-03-02T15:22:23;0.70;;;0.60;;
7410;SDS011;3747;48.628;9.058;2024-03-02T15:24:51;0.90;;;0.90;;
7410;SDS011;3747;48.628;9.058;2024-03-02T15:27:19;1.03;;;0.90;;
7410;SDS011;3747;48.628;9.058;2024-03-02T15:29:45;1.57;;;0.70;;
7410;SDS011;3747;48.628;9.058;2024-03-02T15:32:13;0.97;;;0.60;;